Time;durP1;ratioP1;P1;durP2;ratioP2;P2;SDS_P1;SDS_P2;PMS_P1;PMS_P2;Temp;Humidity;BMP_temperature;BMP_pressure;BME280_temperature;BME280_humidity;BME280_pressure;Samples;Min_cycle;Max_cycle;Signal;HPM_P1;HPM_P2
2023/10/24 00:01:02;;;;;;;3.37;3.07;;;22.10;58.50;;;;;;5054663;28;20257;-67
2023/10/24 00:03:27;;;;;;;3.67;3.37;;;22.10;58.50;;;;;;5054836;28;20167;-67
2023/10/24 00:05:53;;;;;;;3.30;3.10;;;22.10;58.50;;;;;;5053031;28;20229;-66
2023/10/24 00:08:19;;;;;;;3.53;3.23;;;22.10;58.50;;;;;;5034526;28;20666;-66
2023/10/24 00:10:44;;;;;;;3.77;3.47;;;22.10;58.50;;;;;;5034407;28;20204;-67
2023/10/24 00:13:10;;;;;;;3.77;3.30;;;22.10;58.40;;;;;;5033555;28;20168;-67
2023/10/24 00:15:36;;;;;;;3.03;2.83;;;22.10;58.40;;;;;;5034173;28;20576;-66
2023/10/24 00:18:01;;;;;;;3.30;3.10;;;22.10;58.50;;;;;;5034254;28;20226;-67
2023/10/24 00:20:27;;;;;;;3.10;2.90;;;22.10;58.50;;;;;;5034861;28;20180;-66
2023/10/24 00:22:52;;;;;;;3.47;3.10;;;22.10;58.40;;;;;;5034435;28;20175;-66
2023/10/24 00:25:18;;;;;;;3.43;3.00;;;22.10;58.40;;;;;;5034610;28;20290;-67
2023/10/24 00:27:45;;;;;;;3.77;3.10;;;22.10;58.40;;;;;;5040650;28;20595;-67
2023/10/24 00:30:10;;;;;;;3.17;2.93;;;22.10;58.40;;;;;;5055321;28;20216;-67
2023/10/24 00:32:36;;;;;;;2.87;2.67;;;22.10;58.40;;;;;;5058491;28;20504;-66
2023/10/24 00:35:02;;;;;;;3.10;2.90;;;22.10;58.40;;;;;;5057969;28;20677;-65
2023/10/24 00:37:28;;;;;;;3.57;2.63;;;22.10;58.40;;;;;;5053959;28;20176;-67
2023/10/24 00:39:54;;;;;;;3.20;2.90;;;22.10;58.40;;;;;;5037998;28;20787;-67
2023/10/24 00:42:20;;;;;;;3.43;3.13;;;22.10;58.40;;;;;;5056649;28;20187;-66
2023/10/24 00:44:46;;;;;;;3.80;3.50;;;22.10;58.40;;;;;;5057969;28;20202;-66
2023/10/24 00:47:12;;;;;;;2.80;2.60;;;22.10;58.40;;;;;;5056706;28;20165;-66
2023/10/24 00:49:38;;;;;;;3.93;3.20;;;22.10;58.40;;;;;;5037876;28;20422;-67
2023/10/24 00:52:04;;;;;;;2.70;2.50;;;22.10;58.40;;;;;;5038397;28;20172;-66
2023/10/24 00:54:33;;;;;;;2.93;2.70;;;22.10;58.40;;;;;;5037702;28;20442;-67
2023/10/24 00:56:59;;;;;;;3.03;2.83;;;22.10;58.40;;;;;;5037628;28;20428;-66
2023/10/24 00:59:26;;;;;;;3.00;2.80;;;22.10;58.40;;;;;;5037874;28;20450;-65
2023/10/24 01:01:52;;;;;;;2.90;2.70;;;22.10;58.40;;;;;;5037401;28;20406;-66
2023/10/24 01:04:20;;;;;;;3.00;2.80;;;22.10;58.40;;;;;;5042598;28;20592;-66
2023/10/24 01:06:46;;;;;;;3.10;2.90;;;22.10;58.40;;;;;;5057428;28;20484;-66
2023/10/24 01:09:12;;;;;;;3.53;3.30;;;22.10;58.40;;;;;;5057721;28;20475;-66
2023/10/24 01:11:37;;;;;;;2.83;2.63;;;22.10;58.40;;;;;;5057658;28;20604;-67
2023/10/24 01:14:03;;;;;;;3.10;2.80;;;22.10;58.40;;;;;;5054260;28;20183;-66
2023/10/24 01:16:33;;;;;;;2.93;2.73;;;22.10;58.40;;;;;;5037941;28;20418;-67
2023/10/24 01:18:58;;;;;;;3.10;2.90;;;22.10;58.40;;;;;;5037608;28;20195;-67
2023/10/24 01:21:24;;;;;;;3.63;3.13;;;22.10;58.40;;;;;;5037435;28;20792;-66
2023/10/24 01:23:50;;;;;;;3.27;2.97;;;22.10;58.50;;;;;;5038910;28;20172;-67
2023/10/24 01:26:17;;;;;;;3.20;3.00;;;22.10;58.40;;;;;;5057314;28;20701;-66
2023/10/24 01:28:43;;;;;;;3.40;3.13;;;22.10;58.40;;;;;;5057165;28;20412;-65
2023/10/24 01:31:09;;;;;;;3.43;2.97;;;22.10;58.40;;;;;;5057058;28;20414;-67
2023/10/24 01:33:34;;;;;;;3.27;2.50;;;22.10;58.40;;;;;;5057296;28;20658;-66
2023/10/24 01:36:00;;;;;;;3.47;3.17;;;22.10;59.00;;;;;;5038134;28;20326;-66
2023/10/24 01:38:26;;;;;;;2.93;2.73;;;22.10;58.40;;;;;;5037242;28;20187;-67
2023/10/24 01:40:51;;;;;;;3.00;2.80;;;22.10;58.40;;;;;;5037129;28;20203;-66
2023/10/24 01:43:17;;;;;;;2.83;2.63;;;22.10;58.40;;;;;;5037351;28;20464;-67
2023/10/24 01:45:42;;;;;;;3.00;2.80;;;22.10;58.40;;;;;;5037308;28;20208;-67
2023/10/24 01:48:09;;;;;;;3.10;2.90;;;22.10;58.40;;;;;;5037601;28;20227;-66
2023/10/24 01:50:34;;;;;;;3.37;3.07;;;22.10;58.40;;;;;;5037925;28;20203;-65
2023/10/24 01:53:00;;;;;;;3.23;3.03;;;22.10;58.40;;;;;;5037044;28;20406;-68
2023/10/24 01:55:25;;;;;;;2.80;2.60;;;22.10;58.40;;;;;;5050010;28;20229;-66
2023/10/24 01:57:51;;;;;;;3.30;2.87;;;22.10;58.40;;;;;;5056823;28;20646;-67
2023/10/24 02:00:17;;;;;;;2.97;2.70;;;22.10;58.40;;;;;;5057286;28;20181;-66
2023/10/24 02:02:42;;;;;;;2.80;2.50;;;22.10;58.40;;;;;;5057553;28;20300;-67
2023/10/24 02:05:09;;;;;;;2.60;2.40;;;22.10;58.40;;;;;;5045640;28;20817;-66
2023/10/24 02:07:35;;;;;;;3.03;2.83;;;22.10;58.40;;;;;;5035627;28;20647;-66
2023/10/24 02:10:01;;;;;;;3.17;2.90;;;22.10;58.40;;;;;;5036991;28;20541;-66
2023/10/24 02:12:26;;;;;;;2.60;2.40;;;22.10;58.40;;;;;;5038011;28;20194;-66
2023/10/24 02:14:52;;;;;;;2.70;2.50;;;22.10;58.40;;;;;;5036499;28;20214;-67
2023/10/24 02:17:17;;;;;;;2.87;2.67;;;22.10;58.40;;;;;;5035157;28;20180;-66
2023/10/24 02:19:43;;;;;;;2.80;2.60;;;22.10;58.40;;;;;;5036778;28;20191;-67
2023/10/24 02:22:09;;;;;;;2.90;2.70;;;22.10;58.40;;;;;;5035626;28;20183;-67
2023/10/24 02:24:34;;;;;;;4.63;2.90;;;22.10;58.50;;;;;;5041440;28;20578;-67
2023/10/24 02:27:00;;;;;;;3.00;2.80;;;22.10;58.50;;;;;;5056601;28;20236;-67
2023/10/24 02:29:26;;;;;;;2.77;2.57;;;22.10;58.50;;;;;;5056136;28;20255;-66
2023/10/24 02:31:51;;;;;;;2.50;2.30;;;22.10;58.50;;;;;;5056895;28;20178;-66
2023/10/24 02:34:17;;;;;;;2.60;2.40;;;22.10;58.50;;;;;;5055674;28;20202;-66
2023/10/24 02:36:43;;;;;;;2.80;2.60;;;22.10;58.50;;;;;;5057358;28;20672;-66
2023/10/24 02:39:09;;;;;;;2.83;2.63;;;22.10;58.50;;;;;;5056440;28;20189;-66
2023/10/24 02:41:35;;;;;;;2.70;2.50;;;22.10;58.50;;;;;;5056463;28;20206;-66
2023/10/24 02:44:01;;;;;;;2.83;2.63;;;22.10;58.50;;;;;;5055714;28;20467;-67
2023/10/24 02:46:26;;;;;;;3.33;2.80;;;22.10;58.50;;;;;;5035993;28;20203;-66
2023/10/24 02:48:52;;;;;;;2.57;2.37;;;22.10;58.50;;;;;;5035030;28;20176;-66
2023/10/24 02:51:17;;;;;;;2.77;2.23;;;22.10;58.50;;;;;;5036355;28;20850;-66
2023/10/24 02:53:43;;;;;;;2.80;2.60;;;22.10;58.50;;;;;;5035665;28;20685;-65
2023/10/24 02:56:09;;;;;;;2.87;2.67;;;22.10;58.50;;;;;;5036292;28;20231;-66
2023/10/24 02:58:35;;;;;;;2.60;2.40;;;22.10;58.50;;;;;;5036335;28;20422;-66
2023/10/24 03:01:04;;;;;;;3.00;2.70;;;22.10;58.50;;;;;;5036289;28;20175;-66
2023/10/24 03:03:30;;;;;;;2.37;2.17;;;22.10;58.50;;;;;;5036631;28;20574;-67
2023/10/24 03:05:55;;;;;;;2.67;2.47;;;22.10;58.50;;;;;;5050209;28;20462;-67
2023/10/24 03:08:21;;;;;;;2.57;2.37;;;22.10;58.50;;;;;;5056647;28;20479;-67
2023/10/24 03:10:47;;;;;;;2.50;2.30;;;22.10;58.50;;;;;;5055866;28;20171;-65
2023/10/24 03:13:12;;;;;;;2.50;2.30;;;22.10;58.50;;;;;;5055083;28;20201;-66
2023/10/24 03:15:39;;;;;;;3.00;2.80;;;22.10;58.50;;;;;;5052845;28;20205;-66
2023/10/24 03:18:04;;;;;;;3.03;2.57;;;22.10;58.50;;;;;;5054200;28;20186;-66
2023/10/24 03:20:30;;;;;;;2.87;2.47;;;22.10;58.50;;;;;;5055993;28;20504;-67
2023/10/24 03:22:56;;;;;;;2.57;2.37;;;22.10;58.50;;;;;;5055485;28;20183;-66
2023/10/24 03:25:24;;;;;;;3.30;2.67;;;22.10;58.50;;;;;;5054679;28;20237;-66
2023/10/24 03:27:53;;;;;;;2.60;2.40;;;22.10;58.40;;;;;;5050376;28;20175;-67
2023/10/24 03:30:20;;;;;;;2.90;2.70;;;22.10;58.50;;;;;;5035929;28;20446;-65
2023/10/24 03:32:45;;;;;;;2.23;2.13;;;22.10;58.40;;;;;;5036146;28;20457;-66
2023/10/24 03:35:11;;;;;;;2.10;2.00;;;22.10;58.70;;;;;;5036138;28;20827;-66
2023/10/24 03:37:37;;;;;;;3.23;3.03;;;22.10;58.50;;;;;;5040098;28;20305;-66
2023/10/24 03:40:03;;;;;;;2.70;2.50;;;22.10;58.40;;;;;;5056133;28;20205;-66
2023/10/24 03:42:30;;;;;;;2.80;2.60;;;22.10;58.50;;;;;;5055767;28;20175;-66
2023/10/24 03:44:56;;;;;;;2.20;2.00;;;22.10;58.40;;;;;;5056412;28;21038;-65
2023/10/24 03:47:21;;;;;;;2.80;2.60;;;22.10;58.50;;;;;;5052524;28;20429;-67
2023/10/24 03:49:47;;;;;;;2.50;2.30;;;22.10;58.40;;;;;;5035951;28;20255;-66
2023/10/24 03:52:12;;;;;;;3.37;2.60;;;22.10;58.40;;;;;;5035899;28;20179;-66
2023/10/24 03:54:38;;;;;;;2.30;2.10;;;22.10;58.40;;;;;;5035296;28;20195;-66
2023/10/24 03:57:04;;;;;;;1.97;1.87;;;22.10;58.40;;;;;;5035587;28;20183;-66
2023/10/24 03:59:29;;;;;;;2.47;2.27;;;22.10;58.40;;;;;;5054661;28;20187;-66
2023/10/24 04:01:56;;;;;;;2.53;2.33;;;22.10;58.40;;;;;;5054537;28;20183;-66
2023/10/24 04:04:22;;;;;;;3.60;2.93;;;22.10;58.40;;;;;;5056873;28;20271;-67
2023/10/24 04:06:47;;;;;;;2.63;2.43;;;22.10;58.40;;;;;;5059860;28;20473;-67
2023/10/24 04:09:13;;;;;;;2.40;2.20;;;22.10;58.40;;;;;;5043313;28;20752;-67
2023/10/24 04:11:38;;;;;;;2.70;2.50;;;22.10;58.40;;;;;;5039503;28;20168;-64
2023/10/24 04:14:04;;;;;;;2.40;2.20;;;22.10;58.40;;;;;;5039090;28;20172;-65
2023/10/24 04:16:32;;;;;;;2.63;2.43;;;22.10;58.40;;;;;;5037262;28;20733;-67
2023/10/24 04:18:58;;;;;;;2.37;2.17;;;22.10;58.40;;;;;;5052689;28;20672;-67
2023/10/24 04:21:24;;;;;;;2.20;2.00;;;22.10;58.40;;;;;;5058853;28;20508;-66
2023/10/24 04:23:49;;;;;;;2.57;2.37;;;22.10;58.40;;;;;;5059354;28;20452;-67
2023/10/24 04:26:16;;;;;;;2.30;2.10;;;22.10;58.40;;;;;;5058518;28;20238;-68
2023/10/24 04:28:41;;;;;;;2.73;2.53;;;22.10;58.40;;;;;;5047170;28;20180;-67
2023/10/24 04:31:07;;;;;;;2.83;2.63;;;22.00;58.30;;;;;;5038940;28;20935;-66
2023/10/24 04:33:32;;;;;;;2.17;2.03;;;22.10;58.40;;;;;;5038972;28;20180;-66
2023/10/24 04:35:58;;;;;;;3.00;2.80;;;22.10;58.40;;;;;;5039066;28;20226;-67
2023/10/24 04:38:23;;;;;;;2.90;2.70;;;22.00;58.30;;;;;;5047346;28;20183;-65
2023/10/24 04:40:52;;;;;;;3.00;2.80;;;22.10;58.40;;;;;;5058903;28;20182;-64
2023/10/24 04:43:18;;;;;;;2.50;2.30;;;22.10;58.50;;;;;;5057762;28;20182;-65
2023/10/24 04:45:44;;;;;;;2.67;2.47;;;22.10;58.50;;;;;;5058890;28;20510;-66
2023/10/24 04:48:10;;;;;;;2.57;2.37;;;22.10;58.40;;;;;;5057955;28;20524;-66
2023/10/24 04:50:38;;;;;;;2.60;2.30;;;22.10;58.30;;;;;;5059685;28;20401;-66
2023/10/24 04:53:05;;;;;;;2.33;2.13;;;22.10;58.40;;;;;;5058629;28;20413;-65
2023/10/24 04:55:30;;;;;;;2.60;2.40;;;22.00;58.30;;;;;;5056703;28;20898;-66
2023/10/24 04:57:56;;;;;;;3.27;2.97;;;22.00;58.30;;;;;;5052567;28;20432;-66
2023/10/24 05:00:22;;;;;;;2.60;2.40;;;22.10;58.40;;;;;;5049104;28;20187;-66
2023/10/24 05:02:47;;;;;;;2.40;2.20;;;22.10;58.40;;;;;;5039171;28;20180;-66
2023/10/24 05:05:13;;;;;;;2.53;2.33;;;22.10;58.40;;;;;;5040321;28;20227;-67
2023/10/24 05:07:38;;;;;;;2.30;2.13;;;22.00;58.40;;;;;;5038487;28;20179;-66
2023/10/24 05:10:05;;;;;;;2.30;2.20;;;22.10;58.40;;;;;;5038991;28;20258;-67
2023/10/24 05:12:32;;;;;;;2.40;2.20;;;22.00;58.40;;;;;;5037791;28;20250;-67
2023/10/24 05:14:57;;;;;;;2.70;2.50;;;22.10;58.50;;;;;;5038969;28;20461;-68
2023/10/24 05:17:23;;;;;;;2.17;2.07;;;22.10;58.50;;;;;;5036769;28;20423;-66
2023/10/24 05:19:48;;;;;;;3.30;2.37;;;22.10;58.50;;;;;;5021346;28;20247;-67
2023/10/24 05:22:14;;;;;;;2.50;2.30;;;22.10;58.50;;;;;;5039357;28;20199;-66
2023/10/24 05:24:40;;;;;;;2.40;2.20;;;22.10;58.50;;;;;;5038927;28;20207;-66
2023/10/24 05:27:06;;;;;;;2.07;1.97;;;22.10;58.50;;;;;;5039460;28;20410;-66
2023/10/24 05:29:35;;;;;;;2.30;2.00;;;22.10;58.50;;;;;;5038818;28;20278;-66
2023/10/24 05:32:01;;;;;;;2.63;2.43;;;22.10;58.50;;;;;;5039595;28;20512;-66
2023/10/24 05:34:27;;;;;;;2.50;2.30;;;22.10;58.50;;;;;;5039293;28;20469;-66
2023/10/24 05:36:53;;;;;;;2.70;2.50;;;22.10;58.50;;;;;;5039305;28;20211;-66
2023/10/24 05:39:19;;;;;;;2.80;2.40;;;22.10;58.40;;;;;;5039564;28;20418;-66
2023/10/24 05:41:48;;;;;;;2.80;2.50;;;22.10;58.40;;;;;;5038882;28;20414;-65
2023/10/24 05:44:14;;;;;;;2.87;2.20;;;22.10;58.40;;;;;;5039194;28;20533;-66
2023/10/24 05:46:40;;;;;;;2.73;2.00;;;22.10;58.40;;;;;;5039373;28;20490;-67
2023/10/24 05:49:06;;;;;;;2.20;2.10;;;22.10;58.40;;;;;;5038985;28;20225;-67
2023/10/24 05:51:32;;;;;;;1.90;1.80;;;22.10;58.40;;;;;;5038580;28;20491;-65
2023/10/24 05:53:58;;;;;;;2.30;2.10;;;22.00;58.30;;;;;;5038180;28;20921;-67
2023/10/24 05:56:24;;;;;;;2.30;2.10;;;22.00;58.30;;;;;;5037387;28;20186;-65
2023/10/24 05:58:50;;;;;;;2.33;2.17;;;22.10;58.40;;;;;;5038292;28;20410;-67
2023/10/24 06:01:15;;;;;;;2.37;2.17;;;22.10;58.40;;;;;;5038130;28;20194;-67
2023/10/24 06:03:41;;;;;;;2.30;2.10;;;22.00;58.40;;;;;;5038309;28;20591;-67
2023/10/24 06:06:07;;;;;;;2.60;2.40;;;22.00;58.40;;;;;;5036861;28;20234;-66
2023/10/24 06:08:33;;;;;;;2.40;2.20;;;22.10;58.40;;;;;;5038495;28;20230;-66
2023/10/24 06:11:00;;;;;;;2.40;2.20;;;22.10;58.40;;;;;;5038758;28;20422;-67
2023/10/24 06:13:26;;;;;;;1.80;1.70;;;22.10;58.50;;;;;;5038196;28;20417;-66
2023/10/24 06:15:52;;;;;;;3.00;2.17;;;22.10;58.40;;;;;;5037789;28;20798;-67
2023/10/24 06:18:18;;;;;;;2.70;2.60;;;22.10;58.50;;;;;;5038771;28;20468;-67
2023/10/24 06:20:44;;;;;;;2.40;2.20;;;22.00;58.40;;;;;;5037781;28;20171;-64
2023/10/24 06:23:10;;;;;;;2.33;2.13;;;22.10;58.50;;;;;;5038550;28;20788;-66
2023/10/24 06:25:42;;;;;;;2.40;2.03;;;22.10;58.50;;;;;;5038113;28;20203;-66
2023/10/24 06:28:08;;;;;;;2.40;2.10;;;22.00;58.40;;;;;;5036720;28;20992;-67
2023/10/24 06:30:35;;;;;;;2.47;2.20;;;22.10;58.50;;;;;;5037958;28;20865;-66
2023/10/24 06:33:03;;;;;;;2.40;2.30;;;22.10;58.50;;;;;;5037647;28;20406;-65
2023/10/24 06:35:29;;;;;;;1.97;1.80;;;22.10;58.50;;;;;;5038122;28;20861;-67
2023/10/24 06:37:56;;;;;;;2.37;2.17;;;22.10;58.50;;;;;;5037487;28;20418;-66
2023/10/24 06:40:22;;;;;;;2.70;2.10;;;22.10;58.50;;;;;;5037435;28;20171;-67
2023/10/24 06:42:50;;;;;;;3.07;2.07;;;22.10;58.50;;;;;;5037098;28;20471;-66
2023/10/24 06:45:16;;;;;;;2.00;1.90;;;22.10;58.60;;;;;;5037262;28;20199;-66
2023/10/24 06:47:41;;;;;;;2.70;2.27;;;22.10;58.50;;;;;;5037522;28;20415;-66
2023/10/24 06:50:07;;;;;;;2.33;2.13;;;22.10;58.50;;;;;;5037765;28;20407;-66
2023/10/24 06:52:34;;;;;;;2.53;1.93;;;22.10;58.50;;;;;;5037901;28;20182;-65
2023/10/24 06:55:00;;;;;;;2.37;2.17;;;22.10;58.50;;;;;;5037423;28;20468;-67
2023/10/24 06:57:26;;;;;;;2.30;2.10;;;22.10;58.50;;;;;;5037343;28;20484;-66
2023/10/24 06:59:51;;;;;;;2.40;2.20;;;22.10;58.50;;;;;;5037529;28;20410;-66
2023/10/24 07:02:18;;;;;;;2.30;2.10;;;22.10;58.50;;;;;;5037649;28;20433;-63
2023/10/24 07:04:43;;;;;;;2.33;2.13;;;22.10;58.50;;;;;;5036841;28;20196;-66
2023/10/24 07:07:09;;;;;;;2.23;2.03;;;22.10;58.50;;;;;;5036952;28;20513;-65
2023/10/24 07:09:35;;;;;;;2.27;2.07;;;22.10;58.50;;;;;;5037277;28;20512;-66
2023/10/24 07:12:01;;;;;;;1.73;1.63;;;22.10;58.50;;;;;;5037187;28;20186;-66
2023/10/24 07:14:26;;;;;;;2.43;2.23;;;22.10;58.50;;;;;;5037405;28;20565;-66
2023/10/24 07:16:52;;;;;;;2.33;2.10;;;22.10;58.50;;;;;;5037226;28;20257;-67
2023/10/24 07:19:18;;;;;;;2.30;2.20;;;22.10;58.50;;;;;;5037080;28;20203;-64
2023/10/24 07:21:44;;;;;;;3.40;1.90;;;22.10;58.50;;;;;;5037311;28;20184;-66
2023/10/24 07:24:09;;;;;;;2.20;2.00;;;22.10;58.50;;;;;;5036810;28;20414;-66
2023/10/24 07:26:35;;;;;;;1.93;1.83;;;22.10;58.50;;;;;;5037274;28;20219;-67
2023/10/24 07:29:01;;;;;;;2.17;2.00;;;22.10;58.40;;;;;;5036825;28;20531;-66
2023/10/24 07:31:27;;;;;;;2.43;2.17;;;22.10;58.50;;;;;;5036737;28;20203;-65
2023/10/24 07:33:52;;;;;;;2.03;1.80;;;22.10;58.40;;;;;;5035827;28;20426;-66
2023/10/24 07:36:18;;;;;;;2.10;1.90;;;22.10;58.40;;;;;;5036628;28;20199;-66
2023/10/24 07:38:44;;;;;;;1.90;1.80;;;22.10;58.50;;;;;;5037106;28;20183;-66
2023/10/24 07:41:10;;;;;;;3.17;2.30;;;22.00;58.40;;;;;;5036887;28;20183;-66
2023/10/24 07:43:36;;;;;;;2.20;2.00;;;22.10;58.50;;;;;;5037013;28;20191;-66
2023/10/24 07:46:02;;;;;;;2.57;2.00;;;22.10;58.50;;;;;;5036648;28;20462;-65
2023/10/24 07:48:28;;;;;;;2.00;1.80;;;22.10;58.50;;;;;;5036741;28;20521;-66
2023/10/24 07:50:55;;;;;;;2.10;1.90;;;22.10;58.50;;;;;;5037285;28;20662;-67
2023/10/24 07:53:23;;;;;;;2.30;2.10;;;22.10;58.50;;;;;;5036633;28;20203;-66
2023/10/24 07:55:48;;;;;;;2.57;2.37;;;22.10;58.50;;;;;;5036475;28;20438;-64
2023/10/24 07:58:18;;;;;;;2.60;2.40;;;22.10;58.50;;;;;;5036629;28;20421;-66
2023/10/24 08:00:44;;;;;;;2.87;1.80;;;22.10;58.60;;;;;;5037196;28;20203;-67
2023/10/24 08:03:15;;;;;;;2.03;1.77;;;22.10;58.60;;;;;;5035843;28;20524;-66
2023/10/24 08:05:41;;;;;;;2.50;2.27;;;22.10;58.50;;;;;;5036961;28;20520;-66
2023/10/24 08:08:07;;;;;;;2.90;2.10;;;22.10;58.60;;;;;;5036452;28;20940;-66
2023/10/24 08:10:33;;;;;;;2.80;2.60;;;22.10;58.60;;;;;;5037055;28;20414;-64
2023/10/24 08:12:59;;;;;;;2.37;2.17;;;22.10;58.60;;;;;;5035600;28;20176;-65
2023/10/24 08:15:26;;;;;;;2.63;2.03;;;22.10;58.60;;;;;;5035102;28;20450;-64
2023/10/24 08:17:52;;;;;;;1.97;1.77;;;22.10;58.60;;;;;;5034966;28;20502;-66
2023/10/24 08:20:18;;;;;;;2.27;2.03;;;22.10;58.60;;;;;;5035693;28;20446;-65
2023/10/24 08:22:44;;;;;;;2.30;1.70;;;22.10;58.60;;;;;;5035710;28;20182;-66
2023/10/24 08:25:10;;;;;;;2.30;2.10;;;22.10;58.60;;;;;;5035529;28;20465;-67
2023/10/24 08:27:35;;;;;;;2.60;2.40;;;22.10;58.70;;;;;;5036181;28;20188;-67
2023/10/24 08:30:03;;;;;;;2.40;2.20;;;22.10;58.70;;;;;;5035573;28;20176;-67
2023/10/24 08:32:29;;;;;;;2.20;2.00;;;22.10;58.60;;;;;;5035445;28;20210;-66
2023/10/24 08:34:55;;;;;;;2.87;2.23;;;22.10;58.60;;;;;;5035353;28;20438;-66
2023/10/24 08:37:21;;;;;;;1.93;1.83;;;22.10;58.60;;;;;;5034627;28;20441;-66
2023/10/24 08:39:46;;;;;;;2.00;1.80;;;22.10;58.50;;;;;;5035302;28;20473;-64
2023/10/24 08:42:14;;;;;;;1.93;1.83;;;22.10;58.50;;;;;;5035283;28;20837;-66
2023/10/24 08:44:41;;;;;;;2.03;1.83;;;22.10;58.60;;;;;;5035188;28;20734;-69
2023/10/24 08:47:09;;;;;;;1.90;1.80;;;22.10;58.60;;;;;;5033850;28;20465;-65
2023/10/24 08:49:38;;;;;;;2.40;2.00;;;22.10;58.50;;;;;;5035748;28;20425;-64
2023/10/24 08:52:05;;;;;;;2.20;2.00;;;22.10;58.50;;;;;;5037647;28;20464;-67
2023/10/24 08:54:31;;;;;;;1.90;1.60;;;22.10;58.50;;;;;;5038855;28;20980;-67
2023/10/24 08:57:01;;;;;;;1.70;1.60;;;22.10;58.50;;;;;;5038960;28;20410;-63
2023/10/24 08:59:31;;;;;;;1.93;1.73;;;22.10;58.50;;;;;;5039189;28;20413;-66
2023/10/24 09:01:57;;;;;;;2.87;1.83;;;22.10;58.50;;;;;;5038842;28;20410;-66
2023/10/24 09:04:22;;;;;;;3.00;2.07;;;22.10;58.50;;;;;;5038998;28;20430;-66
2023/10/24 09:06:48;;;;;;;2.33;1.80;;;22.10;58.50;;;;;;5038788;28;20200;-63
2023/10/24 09:09:15;;;;;;;2.30;2.10;;;22.10;58.50;;;;;;5038508;28;20176;-64
2023/10/24 09:12:00;;;;;;;1.80;1.70;;;22.10;58.50;;;;;;5038974;28;20529;-66
2023/10/24 09:14:28;;;;;;;2.57;2.30;;;22.10;58.50;;;;;;5038542;28;20937;-66
2023/10/24 09:16:58;;;;;;;2.17;1.83;;;22.10;58.50;;;;;;5037921;28;20414;-64
2023/10/24 09:19:25;;;;;;;2.17;1.80;;;22.10;58.50;;;;;;5038295;28;20519;-65
2023/10/24 09:21:52;;;;;;;1.80;1.70;;;22.10;58.50;;;;;;5038519;28;20415;-62
2023/10/24 09:24:19;;;;;;;2.90;2.30;;;22.10;58.60;;;;;;5038541;28;20842;-66
2023/10/24 09:26:55;;;;;;;1.90;1.80;;;22.10;58.60;;;;;;5038202;28;20462;-65
2023/10/24 09:29:24;;;;;;;2.10;2.00;;;22.10;58.50;;;;;;5038087;28;20410;-66
2023/10/24 09:31:50;;;;;;;1.77;1.67;;;22.10;58.60;;;;;;5038641;28;20922;-65
2023/10/24 09:34:16;;;;;;;2.00;1.60;;;22.10;58.60;;;;;;5038083;28;20901;-66
2023/10/24 09:36:43;;;;;;;2.60;1.90;;;22.10;58.60;;;;;;5038061;28;20491;-64
2023/10/24 09:39:12;;;;;;;2.13;1.93;;;22.10;58.60;;;;;;5037812;28;20425;-65
2023/10/24 09:41:43;;;;;;;2.40;2.20;;;22.10;58.60;;;;;;5038541;28;20411;-67
2023/10/24 09:44:08;;;;;;;2.00;1.70;;;22.10;58.60;;;;;;5038196;28;20422;-64
2023/10/24 09:46:35;;;;;;;1.90;1.80;;;22.10;58.60;;;;;;5038054;28;20453;-64
2023/10/24 09:49:02;;;;;;;2.00;1.80;;;22.10;58.60;;;;;;5037543;28;20226;-66
2023/10/24 09:51:30;;;;;;;1.90;1.70;;;22.10;58.60;;;;;;5037983;28;20411;-66
2023/10/24 09:53:57;;;;;;;2.10;1.67;;;22.10;58.60;;;;;;5037358;28;20951;-68
2023/10/24 09:56:24;;;;;;;1.70;1.60;;;22.10;59.10;;;;;;5037700;28;20414;-68
2023/10/24 09:58:50;;;;;;;2.57;1.67;;;22.10;58.50;;;;;;5038019;28;20421;-68
2023/10/24 10:01:17;;;;;;;2.07;1.57;;;22.10;58.50;;;;;;5037631;28;20854;-69
2023/10/24 10:03:44;;;;;;;1.90;1.80;;;22.10;58.50;;;;;;5037208;28;21080;-68
2023/10/24 10:06:13;;;;;;;1.97;1.67;;;22.10;58.50;;;;;;5036584;28;20871;-69
2023/10/24 10:08:41;;;;;;;1.90;1.80;;;22.10;58.50;;;;;;5037770;28;20437;-68
2023/10/24 10:11:07;;;;;;;2.37;1.60;;;22.10;58.50;;;;;;5037211;28;20413;-68
2023/10/24 10:13:37;;;;;;;1.80;1.70;;;22.10;58.50;;;;;;5037180;28;20414;-68
2023/10/24 10:16:30;;;;;;;1.77;1.67;;;22.10;58.50;;;;;;5037251;28;20430;-68
2023/10/24 10:19:28;;;;;;;1.90;1.80;;;22.10;58.50;;;;;;5037221;28;20427;-68
2023/10/24 10:22:12;;;;;;;1.77;1.50;;;22.10;58.60;;;;;;5037475;28;20406;-63
2023/10/24 10:24:53;;;;;;;1.70;1.60;;;22.10;58.50;;;;;;5036862;28;20548;-66
2023/10/24 10:27:27;;;;;;;2.27;1.80;;;22.10;58.50;;;;;;5037069;28;20430;-65
2023/10/24 10:30:20;;;;;;;1.80;1.70;;;22.10;58.60;;;;;;5036696;28;20410;-64
2023/10/24 10:33:09;;;;;;;2.70;2.50;;;22.10;58.60;;;;;;5036748;28;20816;-64
2023/10/24 10:35:53;;;;;;;1.60;1.50;;;22.10;58.60;;;;;;5036555;28;20863;-66
2023/10/24 10:38:44;;;;;;;1.80;1.70;;;22.10;58.70;;;;;;5037812;28;20469;-67
2023/10/24 10:41:32;;;;;;;2.93;1.73;;;22.10;58.70;;;;;;5037660;28;20770;-67
2023/10/24 10:44:00;;;;;;;1.70;1.60;;;22.10;58.70;;;;;;5035708;28;20418;-63
2023/10/24 10:46:30;;;;;;;2.60;2.20;;;22.10;58.70;;;;;;5036407;28;20468;-65
2023/10/24 10:48:58;;;;;;;2.00;1.90;;;22.10;58.70;;;;;;5037772;28;20417;-65
2023/10/24 10:51:29;;;;;;;1.63;1.53;;;22.10;58.70;;;;;;5037448;28;20419;-67
2023/10/24 10:54:20;;;;;;;2.13;1.80;;;22.10;58.60;;;;;;5036112;28;20407;-67
2023/10/24 10:56:48;;;;;;;2.40;2.13;;;22.10;58.60;;;;;;5037576;28;20410;-67
2023/10/24 10:59:47;;;;;;;6.30;2.30;;;22.10;58.60;;;;;;5037356;28;20420;-66
2023/10/24 11:02:36;;;;;;;2.80;1.70;;;22.10;58.60;;;;;;5037378;28;20480;-66
2023/10/24 11:05:01;;;;;;;2.67;1.90;;;22.10;58.70;;;;;;5038140;28;20438;-67
2023/10/24 11:07:54;;;;;;;1.70;1.60;;;22.10;58.70;;;;;;5037612;28;20795;-67
2023/10/24 11:10:19;;;;;;;3.83;1.97;;;22.10;58.70;;;;;;5037184;28;20441;-67
2023/10/24 11:12:48;;;;;;;2.77;2.00;;;22.10;58.60;;;;;;5036778;28;20909;-67
2023/10/24 11:15:14;;;;;;;2.03;1.53;;;22.10;58.70;;;;;;5036389;28;20192;-66
2023/10/24 11:17:40;;;;;;;2.30;1.70;;;22.10;58.70;;;;;;5036558;28;20993;-67
2023/10/24 11:20:08;;;;;;;2.83;1.57;;;22.10;59.20;;;;;;5036563;28;20192;-66
2023/10/24 11:22:34;;;;;;;1.60;1.50;;;22.10;58.60;;;;;;5035578;28;21024;-65
2023/10/24 11:25:10;;;;;;;1.70;1.60;;;22.10;58.50;;;;;;5036537;28;20462;-66
2023/10/24 11:27:37;;;;;;;2.10;1.90;;;22.10;58.50;;;;;;5037138;28;20433;-66
2023/10/24 11:30:04;;;;;;;1.83;1.70;;;22.20;58.50;;;;;;5037055;28;20460;-66
2023/10/24 11:32:30;;;;;;;1.67;1.50;;;22.20;58.50;;;;;;5036461;28;20442;-65
2023/10/24 11:34:56;;;;;;;1.90;1.60;;;22.10;58.50;;;;;;5036232;28;20457;-67
2023/10/24 11:37:22;;;;;;;2.30;1.40;;;22.10;58.50;;;;;;5036259;28;20172;-65
2023/10/24 11:39:48;;;;;;;2.20;1.90;;;22.10;58.50;;;;;;5036353;28;20172;-66
2023/10/24 11:42:14;;;;;;;2.43;1.77;;;22.20;58.60;;;;;;5036152;28;20433;-66
2023/10/24 11:44:40;;;;;;;3.90;2.10;;;22.10;58.60;;;;;;5036700;28;20434;-66
2023/10/24 11:47:07;;;;;;;3.37;2.00;;;22.20;58.70;;;;;;5035917;28;20207;-66
2023/10/24 11:49:34;;;;;;;2.13;1.93;;;22.20;58.60;;;;;;5035084;28;20602;-67
2023/10/24 11:52:00;;;;;;;1.90;1.60;;;22.20;58.60;;;;;;5036522;28;20790;-67
2023/10/24 11:54:26;;;;;;;2.60;1.40;;;22.20;58.60;;;;;;5036264;28;20752;-68
2023/10/24 11:56:53;;;;;;;2.50;1.57;;;22.20;58.60;;;;;;5034978;28;20533;-67
2023/10/24 11:59:18;;;;;;;2.43;1.80;;;22.20;58.60;;;;;;5034409;28;20187;-65
2023/10/24 12:01:45;;;;;;;4.80;1.50;;;22.20;58.60;;;;;;5035958;28;20418;-66
2023/10/24 12:04:15;;;;;;;1.60;1.50;;;22.20;58.70;;;;;;5036093;28;20257;-65
2023/10/24 12:06:41;;;;;;;1.90;1.70;;;22.20;58.60;;;;;;5034711;28;20604;-67
2023/10/24 12:09:07;;;;;;;3.00;1.60;;;22.20;58.60;;;;;;5036200;28;20406;-66
2023/10/24 12:11:34;;;;;;;2.20;2.00;;;22.20;58.60;;;;;;5036794;28;20172;-66
2023/10/24 12:14:00;;;;;;;2.20;1.70;;;22.20;58.70;;;;;;5037218;28;20414;-67
2023/10/24 12:16:30;;;;;;;2.50;1.67;;;22.20;58.70;;;;;;5036560;28;20416;-65
2023/10/24 12:18:56;;;;;;;1.80;1.50;;;22.20;58.60;;;;;;5036649;28;20445;-66
2023/10/24 12:21:22;;;;;;;2.00;1.80;;;22.20;58.60;;;;;;5037352;28;20431;-67
2023/10/24 12:23:48;;;;;;;1.70;1.60;;;22.20;58.60;;;;;;5037060;28;20472;-65
2023/10/24 12:26:13;;;;;;;2.23;1.70;;;22.10;58.50;;;;;;5039739;28;20208;-67
2023/10/24 12:28:42;;;;;;;1.70;1.60;;;22.20;58.60;;;;;;5040919;28;20227;-66
2023/10/24 12:31:09;;;;;;;2.20;1.73;;;22.10;58.60;;;;;;5040718;28;20226;-66
2023/10/24 12:33:35;;;;;;;2.33;1.60;;;22.20;58.60;;;;;;5041399;28;20517;-66
2023/10/24 12:36:01;;;;;;;2.23;1.57;;;22.20;58.60;;;;;;5040134;28;20461;-65
2023/10/24 12:38:27;;;;;;;3.60;2.03;;;22.20;58.60;;;;;;5038837;28;20218;-67
2023/10/24 12:40:53;;;;;;;2.13;1.90;;;22.10;58.70;;;;;;5039646;28;20444;-65
2023/10/24 12:43:18;;;;;;;4.50;2.00;;;22.20;58.70;;;;;;5039701;28;20414;-66
2023/10/24 12:45:44;;;;;;;3.20;2.23;;;22.20;58.70;;;;;;5039362;28;20294;-67
2023/10/24 12:48:14;;;;;;;3.70;2.00;;;22.20;58.70;;;;;;5039602;28;20499;-67